LAN004 SCIE-SCEL
Flight info
| Callsign | LAN004 |
|---|---|
| Flight time | 0h 44m |
| Altitude | 30000 |
| Route | LODOS4N LODOS UQ808 EROLO EROLO2D |
| Aircraft | A343/H-SDE2E3FGHIJ4J5M1RWXY/LB1D1 |
Departure
| Time | 2026-04-23 18:01 |
|---|---|
| Airport | Carriel Sur International Airport (SCIE) |
Arrival
| Time | 2026-04-23 18:45 |
|---|---|
| Airport | Comodoro Arturo Merino Benítez International Airport (SCEL) |
| Time | Latitude | Longitude | Altitude | Speed | Heading |
|---|---|---|---|---|---|
| 2026-04-23 17:43 | -36.77622 | -73.05978 | 30 ft | 0 kts | 179° |
| 2026-04-23 17:51 | -36.77614 | -73.05978 | 30 ft | 4 kts | 182° |
| 2026-04-23 17:51 | -36.77588 | -73.05973 | 28 ft | 4 kts | 202° |
| 2026-04-23 17:51 | -36.77559 | -73.05927 | 26 ft | 2 kts | 276° |
| 2026-04-23 17:52 | -36.77559 | -73.05925 | 26 ft | 0 kts | 276° |
| 2026-04-23 17:56 | -36.77559 | -73.05930 | 29 ft | 2 kts | 275° |
| 2026-04-23 17:56 | -36.77544 | -73.06056 | 30 ft | 10 kts | 289° |
| 2026-04-23 17:56 | -36.77514 | -73.06140 | 30 ft | 11 kts | 294° |
| 2026-04-23 17:57 | -36.77489 | -73.06182 | 30 ft | 3 kts | 345° |
| 2026-04-23 17:57 | -36.77454 | -73.06179 | 29 ft | 9 kts | 12° |
| 2026-04-23 17:57 | -36.77290 | -73.06085 | 28 ft | 15 kts | 25° |
| 2026-04-23 17:58 | -36.77185 | -73.06026 | 27 ft | 18 kts | 24° |
| 2026-04-23 17:58 | -36.77067 | -73.05958 | 26 ft | 20 kts | 25° |
| 2026-04-23 17:58 | -36.76948 | -73.05888 | 30 ft | 19 kts | 25° |
| 2026-04-23 17:58 | -36.76835 | -73.05821 | 29 ft | 19 kts | 25° |
| 2026-04-23 17:59 | -36.76720 | -73.05756 | 26 ft | 17 kts | 25° |
| 2026-04-23 17:59 | -36.76606 | -73.05689 | 27 ft | 19 kts | 25° |
| 2026-04-23 17:59 | -36.76482 | -73.05616 | 24 ft | 18 kts | 25° |
| 2026-04-23 17:59 | -36.76388 | -73.05594 | 21 ft | 12 kts | 345° |
| 2026-04-23 18:00 | -36.76336 | -73.05669 | 21 ft | 11 kts | 296° |
| 2026-04-23 18:00 | -36.76333 | -73.05760 | 25 ft | 11 kts | 245° |
| 2026-04-23 18:00 | -36.76369 | -73.05799 | 24 ft | 6 kts | 208° |
| 2026-04-23 18:00 | -36.76425 | -73.05831 | 27 ft | 22 kts | 205° |
| 2026-04-23 18:01 | -36.76766 | -73.06028 | 29 ft | 86 kts | 205° |
| 2026-04-23 18:01 | -36.77480 | -73.06440 | 40 ft | 136 kts | 205° |
| 2026-04-23 18:01 | -36.78325 | -73.06944 | 644 ft | 135 kts | 205° |
| 2026-04-23 18:01 | -36.79198 | -73.07465 | 1170 ft | 144 kts | 206° |
| 2026-04-23 18:02 | -36.79896 | -73.07571 | 1371 ft | 167 kts | 171° |
| 2026-04-23 18:02 | -36.81097 | -73.05976 | 1723 ft | 231 kts | 105° |
| 2026-04-23 18:02 | -36.81095 | -73.03795 | 2042 ft | 270 kts | 88° |
| 2026-04-23 18:02 | -36.80965 | -73.01374 | 2840 ft | 281 kts | 89° |
| 2026-04-23 18:03 | -36.80837 | -72.98972 | 4246 ft | 272 kts | 89° |
| 2026-04-23 18:03 | -36.80711 | -72.96610 | 5457 ft | 274 kts | 86° |
| 2026-04-23 18:03 | -36.80544 | -72.94235 | 6354 ft | 283 kts | 80° |
| 2026-04-23 18:03 | -36.79877 | -72.91929 | 7288 ft | 287 kts | 55° |
| 2026-04-23 18:04 | -36.78505 | -72.90129 | 8234 ft | 288 kts | 37° |
| 2026-04-23 18:04 | -36.76923 | -72.88570 | 9182 ft | 292 kts | 35° |
| 2026-04-23 18:04 | -36.75294 | -72.87010 | 10108 ft | 298 kts | 35° |
| 2026-04-23 18:04 | -36.73629 | -72.85409 | 10755 ft | 311 kts | 35° |
| 2026-04-23 18:05 | -36.71859 | -72.83697 | 11114 ft | 332 kts | 35° |
| 2026-04-23 18:05 | -36.69980 | -72.81871 | 11475 ft | 351 kts | 35° |
| 2026-04-23 18:05 | -36.68023 | -72.79963 | 12074 ft | 361 kts | 36° |
| 2026-04-23 18:05 | -36.66034 | -72.78021 | 12843 ft | 366 kts | 36° |
| 2026-04-23 18:06 | -36.64015 | -72.76051 | 13611 ft | 372 kts | 36° |
| 2026-04-23 18:06 | -36.61963 | -72.74049 | 14322 ft | 378 kts | 35° |
| 2026-04-23 18:06 | -36.59879 | -72.72019 | 15026 ft | 382 kts | 36° |
| 2026-04-23 18:06 | -36.57770 | -72.69964 | 15753 ft | 387 kts | 36° |
| 2026-04-23 18:07 | -36.55667 | -72.67917 | 16474 ft | 390 kts | 36° |
| 2026-04-23 18:07 | -36.53508 | -72.65817 | 17197 ft | 395 kts | 36° |
| 2026-04-23 18:07 | -36.51330 | -72.63701 | 17916 ft | 399 kts | 36° |
| 2026-04-23 18:07 | -36.49132 | -72.61567 | 18619 ft | 403 kts | 36° |
| 2026-04-23 18:08 | -36.47662 | -72.60140 | 19030 ft | 406 kts | 36° |
| 2026-04-23 18:08 | -36.44663 | -72.57232 | 19860 ft | 411 kts | 36° |
| 2026-04-23 18:08 | -36.42393 | -72.55033 | 20471 ft | 415 kts | 36° |
| 2026-04-23 18:08 | -36.40132 | -72.52844 | 21116 ft | 417 kts | 36° |
| 2026-04-23 18:09 | -36.37835 | -72.50622 | 21704 ft | 421 kts | 36° |
| 2026-04-23 18:09 | -36.35508 | -72.48374 | 22279 ft | 425 kts | 36° |
| 2026-04-23 18:09 | -36.33166 | -72.46112 | 22903 ft | 428 kts | 36° |
| 2026-04-23 18:09 | -36.30805 | -72.43833 | 23457 ft | 432 kts | 36° |
| 2026-04-23 18:10 | -36.28421 | -72.41534 | 23952 ft | 436 kts | 36° |
| 2026-04-23 18:10 | -36.26022 | -72.39224 | 24474 ft | 437 kts | 36° |
| 2026-04-23 18:10 | -36.23608 | -72.36899 | 24905 ft | 441 kts | 36° |
| 2026-04-23 18:10 | -36.21177 | -72.34562 | 25343 ft | 444 kts | 36° |
| 2026-04-23 18:11 | -36.18732 | -72.32212 | 25842 ft | 445 kts | 36° |
| 2026-04-23 18:11 | -36.16280 | -72.29857 | 26269 ft | 449 kts | 36° |
| 2026-04-23 18:11 | -36.13805 | -72.27482 | 26680 ft | 451 kts | 36° |
| 2026-04-23 18:11 | -36.11316 | -72.25096 | 27150 ft | 453 kts | 36° |
| 2026-04-23 18:12 | -36.08813 | -72.22697 | 27572 ft | 455 kts | 36° |
| 2026-04-23 18:12 | -36.06299 | -72.20300 | 27962 ft | 458 kts | 35° |
| 2026-04-23 18:12 | -36.03651 | -72.18112 | 28365 ft | 458 kts | 27° |
| 2026-04-23 18:12 | -36.00826 | -72.16251 | 28761 ft | 459 kts | 24° |
| 2026-04-23 18:13 | -35.97972 | -72.14568 | 29137 ft | 461 kts | 22° |
| 2026-04-23 18:13 | -35.95037 | -72.12934 | 29515 ft | 464 kts | 21° |
| 2026-04-23 18:13 | -35.92081 | -72.11317 | 29881 ft | 466 kts | 21° |
| 2026-04-23 18:13 | -35.89108 | -72.09690 | 30156 ft | 470 kts | 21° |
| 2026-04-23 18:14 | -35.87091 | -72.08577 | 30173 ft | 468 kts | 21° |
| 2026-04-23 18:14 | -35.80237 | -72.04744 | 30190 ft | 465 kts | 21° |
| 2026-04-23 18:15 | -35.74358 | -72.01430 | 30180 ft | 465 kts | 22° |
| 2026-04-23 18:15 | -35.68481 | -71.98119 | 30180 ft | 465 kts | 22° |
| 2026-04-23 18:16 | -35.62589 | -71.94807 | 30174 ft | 465 kts | 21° |
| 2026-04-23 18:16 | -35.56739 | -71.91526 | 30182 ft | 464 kts | 21° |
| 2026-04-23 18:17 | -35.47925 | -71.86590 | 30187 ft | 464 kts | 21° |
| 2026-04-23 18:17 | -35.42050 | -71.83308 | 30186 ft | 464 kts | 21° |
| 2026-04-23 18:18 | -35.36167 | -71.80027 | 30188 ft | 464 kts | 21° |
| 2026-04-23 18:18 | -35.31285 | -71.77310 | 30185 ft | 464 kts | 21° |
| 2026-04-23 18:19 | -35.25396 | -71.74036 | 30185 ft | 464 kts | 21° |
| 2026-04-23 18:19 | -35.19516 | -71.70775 | 30174 ft | 464 kts | 21° |
| 2026-04-23 18:20 | -35.13658 | -71.67530 | 30182 ft | 464 kts | 21° |
| 2026-04-23 18:20 | -35.07773 | -71.64271 | 30175 ft | 464 kts | 21° |
| 2026-04-23 18:21 | -35.01896 | -71.61022 | 30176 ft | 464 kts | 21° |
| 2026-04-23 18:21 | -34.96008 | -71.57775 | 30176 ft | 464 kts | 21° |
| 2026-04-23 18:22 | -34.90122 | -71.54532 | 30171 ft | 464 kts | 20° |
| 2026-04-23 18:22 | -34.84236 | -71.51294 | 30178 ft | 464 kts | 20° |
| 2026-04-23 18:23 | -34.75400 | -71.46446 | 30170 ft | 464 kts | 20° |
| 2026-04-23 18:24 | -34.66603 | -71.41630 | 30161 ft | 463 kts | 20° |
| 2026-04-23 18:25 | -34.58205 | -71.37345 | 30162 ft | 462 kts | 17° |
| 2026-04-23 18:25 | -34.52229 | -71.34440 | 30158 ft | 462 kts | 17° |
| 2026-04-23 18:26 | -34.46314 | -71.31544 | 30138 ft | 461 kts | 17° |
| 2026-04-23 18:26 | -34.43344 | -71.30087 | 29867 ft | 461 kts | 17° |
| 2026-04-23 18:26 | -34.40372 | -71.28630 | 29628 ft | 459 kts | 17° |
| 2026-04-23 18:26 | -34.37448 | -71.27191 | 29423 ft | 447 kts | 17° |
| 2026-04-23 18:27 | -34.34573 | -71.25780 | 28920 ft | 443 kts | 17° |
| 2026-04-23 18:27 | -34.31726 | -71.24387 | 28371 ft | 440 kts | 18° |
| 2026-04-23 18:27 | -34.28902 | -71.23005 | 27849 ft | 437 kts | 18° |
| 2026-04-23 18:27 | -34.26081 | -71.21626 | 27317 ft | 434 kts | 18° |
| 2026-04-23 18:28 | -34.23292 | -71.20265 | 26805 ft | 431 kts | 18° |
| 2026-04-23 18:28 | -34.20519 | -71.18911 | 26282 ft | 429 kts | 18° |
| 2026-04-23 18:28 | -34.17762 | -71.17569 | 25758 ft | 426 kts | 18° |
| 2026-04-23 18:28 | -34.15017 | -71.16229 | 25247 ft | 424 kts | 18° |
| 2026-04-23 18:29 | -34.12316 | -71.14913 | 24703 ft | 425 kts | 18° |
| 2026-04-23 18:29 | -34.09581 | -71.13582 | 24188 ft | 423 kts | 18° |
| 2026-04-23 18:29 | -34.06856 | -71.12257 | 23684 ft | 422 kts | 18° |
| 2026-04-23 18:29 | -34.04140 | -71.10941 | 23087 ft | 420 kts | 19° |
| 2026-04-23 18:30 | -34.01440 | -71.09626 | 22565 ft | 416 kts | 19° |
| 2026-04-23 18:30 | -33.98768 | -71.08324 | 22047 ft | 411 kts | 19° |
| 2026-04-23 18:30 | -33.96124 | -71.07042 | 21533 ft | 408 kts | 19° |
| 2026-04-23 18:30 | -33.93500 | -71.05772 | 21019 ft | 405 kts | 19° |
| 2026-04-23 18:31 | -33.90894 | -71.04508 | 20512 ft | 402 kts | 19° |
| 2026-04-23 18:31 | -33.88302 | -71.03250 | 20006 ft | 400 kts | 19° |
| 2026-04-23 18:31 | -33.85731 | -71.02005 | 19501 ft | 397 kts | 19° |
| 2026-04-23 18:31 | -33.83173 | -71.00764 | 18998 ft | 394 kts | 20° |
| 2026-04-23 18:32 | -33.80639 | -70.99533 | 18510 ft | 391 kts | 19° |
| 2026-04-23 18:32 | -33.78122 | -70.98320 | 17965 ft | 389 kts | 20° |
| 2026-04-23 18:32 | -33.75648 | -70.97126 | 17457 ft | 386 kts | 20° |
| 2026-04-23 18:32 | -33.73167 | -70.95930 | 16966 ft | 382 kts | 19° |
| 2026-04-23 18:33 | -33.70700 | -70.94741 | 16477 ft | 379 kts | 20° |
| 2026-04-23 18:33 | -33.68266 | -70.93569 | 15984 ft | 375 kts | 20° |
| 2026-04-23 18:33 | -33.65849 | -70.92405 | 15497 ft | 372 kts | 20° |
| 2026-04-23 18:33 | -33.63447 | -70.91249 | 15003 ft | 370 kts | 20° |
| 2026-04-23 18:34 | -33.61064 | -70.90103 | 14519 ft | 367 kts | 20° |
| 2026-04-23 18:34 | -33.58700 | -70.88966 | 14031 ft | 365 kts | 20° |
| 2026-04-23 18:34 | -33.56383 | -70.87733 | 13479 ft | 365 kts | 26° |
| 2026-04-23 18:34 | -33.54197 | -70.86209 | 12995 ft | 361 kts | 29° |
| 2026-04-23 18:35 | -33.52065 | -70.84634 | 12510 ft | 358 kts | 29° |
| 2026-04-23 18:35 | -33.49998 | -70.83103 | 12291 ft | 348 kts | 29° |
| 2026-04-23 18:35 | -33.47976 | -70.81607 | 12161 ft | 335 kts | 29° |
| 2026-04-23 18:35 | -33.45992 | -70.80245 | 12018 ft | 322 kts | 22° |
| 2026-04-23 18:36 | -33.43872 | -70.79657 | 11893 ft | 307 kts | 358° |
| 2026-04-23 18:36 | -33.41837 | -70.80172 | 11762 ft | 295 kts | 335° |
| 2026-04-23 18:36 | -33.40091 | -70.81394 | 11641 ft | 287 kts | 326° |
| 2026-04-23 18:36 | -33.38467 | -70.82720 | 11497 ft | 279 kts | 326° |
| 2026-04-23 18:37 | -33.36867 | -70.84037 | 11144 ft | 280 kts | 326° |
| 2026-04-23 18:37 | -33.35264 | -70.85347 | 10697 ft | 276 kts | 326° |
| 2026-04-23 18:37 | -33.33715 | -70.86613 | 10233 ft | 264 kts | 326° |
| 2026-04-23 18:37 | -33.32222 | -70.87823 | 9751 ft | 254 kts | 326° |
| 2026-04-23 18:38 | -33.30778 | -70.88987 | 9274 ft | 246 kts | 326° |
| 2026-04-23 18:38 | -33.29384 | -70.90109 | 8667 ft | 244 kts | 326° |
| 2026-04-23 18:38 | -33.27986 | -70.91234 | 8050 ft | 242 kts | 325° |
| 2026-04-23 18:38 | -33.26582 | -70.92340 | 7452 ft | 241 kts | 328° |
| 2026-04-23 18:39 | -33.25050 | -70.93113 | 6853 ft | 239 kts | 346° |
| 2026-04-23 18:39 | -33.23396 | -70.93210 | 6239 ft | 239 kts | 8° |
| 2026-04-23 18:39 | -33.21830 | -70.92573 | 5620 ft | 238 kts | 30° |
| 2026-04-23 18:39 | -33.20591 | -70.91311 | 5197 ft | 230 kts | 52° |
| 2026-04-23 18:40 | -33.19836 | -70.89674 | 5104 ft | 221 kts | 72° |
| 2026-04-23 18:40 | -33.19582 | -70.87929 | 5093 ft | 208 kts | 90° |
| 2026-04-23 18:40 | -33.19788 | -70.86269 | 5016 ft | 198 kts | 108° |
| 2026-04-23 18:40 | -33.20368 | -70.84793 | 5003 ft | 196 kts | 122° |
| 2026-04-23 18:41 | -33.21205 | -70.83508 | 5000 ft | 197 kts | 134° |
| 2026-04-23 18:41 | -33.22246 | -70.82447 | 4855 ft | 196 kts | 145° |
| 2026-04-23 18:41 | -33.23443 | -70.81662 | 4473 ft | 197 kts | 157° |
| 2026-04-23 18:41 | -33.24735 | -70.81191 | 4024 ft | 191 kts | 169° |
| 2026-04-23 18:42 | -33.26005 | -70.81015 | 3762 ft | 175 kts | 176° |
| 2026-04-23 18:42 | -33.27143 | -70.80932 | 3669 ft | 153 kts | 177° |
| 2026-04-23 18:42 | -33.28169 | -70.80859 | 3438 ft | 143 kts | 176° |
| 2026-04-23 18:42 | -33.29140 | -70.80786 | 3175 ft | 136 kts | 177° |
| 2026-04-23 18:43 | -33.30064 | -70.80733 | 2999 ft | 132 kts | 179° |
| 2026-04-23 18:43 | -33.30961 | -70.80692 | 2834 ft | 133 kts | 178° |
| 2026-04-23 18:43 | -33.31884 | -70.80647 | 2660 ft | 136 kts | 178° |
| 2026-04-23 18:43 | -33.32859 | -70.80598 | 2467 ft | 138 kts | 178° |
| 2026-04-23 18:44 | -33.33826 | -70.80550 | 2290 ft | 139 kts | 178° |
| 2026-04-23 18:44 | -33.34785 | -70.80500 | 2099 ft | 136 kts | 178° |
| 2026-04-23 18:44 | -33.35724 | -70.80450 | 1889 ft | 133 kts | 177° |
| 2026-04-23 18:44 | -33.36625 | -70.80405 | 1700 ft | 127 kts | 176° |
| 2026-04-23 18:45 | -33.37502 | -70.80354 | 1566 ft | 121 kts | 176° |
| 2026-04-23 18:45 | -33.38184 | -70.80318 | 1560 ft | 72 kts | 177° |
| 2026-04-23 18:45 | -33.38558 | -70.80299 | 1562 ft | 47 kts | 178° |
| 2026-04-23 18:45 | -33.38864 | -70.80280 | 1564 ft | 42 kts | 177° |
| 2026-04-23 18:46 | -33.39118 | -70.80267 | 1564 ft | 26 kts | 175° |
| 2026-04-23 18:46 | -33.39294 | -70.80220 | 1563 ft | 25 kts | 158° |
| 2026-04-23 18:46 | -33.39422 | -70.80128 | 1563 ft | 20 kts | 144° |
| 2026-04-23 18:46 | -33.39516 | -70.80032 | 1564 ft | 14 kts | 125° |
| 2026-04-23 18:47 | -33.39529 | -70.79917 | 1564 ft | 13 kts | 88° |
| 2026-04-23 18:47 | -33.39527 | -70.79830 | 1564 ft | 11 kts | 89° |
| 2026-04-23 18:47 | -33.39525 | -70.79735 | 1564 ft | 12 kts | 87° |
| 2026-04-23 18:47 | -33.39521 | -70.79634 | 1564 ft | 11 kts | 87° |
| 2026-04-23 18:48 | -33.39518 | -70.79535 | 1564 ft | 10 kts | 88° |
| 2026-04-23 18:48 | -33.39525 | -70.79466 | 1564 ft | 8 kts | 119° |
| 2026-04-23 18:48 | -33.39561 | -70.79450 | 1564 ft | 5 kts | 177° |
| 2026-04-23 18:48 | -33.39587 | -70.79450 | 1564 ft | 4 kts | 181° |
| 2026-04-23 18:49 | -33.39594 | -70.79450 | 1564 ft | 0 kts | 180° |